This is the latest recevied weather packets stored in our database for station/object EA4IAJ-12. If no packets are shown the sender has not sent any weather packets the latest 10 day(s).
| Time | Temp. | Humidity | Pressure | Rain* | Wind** | Luminosity | Snow |
|---|---|---|---|---|---|---|---|
| 1777997726 | 18.89° C | 44% | 1020.6 hPa | - | - | - | - |
| 1777996826 | 21.11° C | 46% | 1029.6 hPa | - | - | - | - |
| 1777995937 | 21.67° C | 48% | 1032.5 hPa | - | - | - | - |
| 1777994136 | 23.89° C | 52% | 1041.4 hPa | - | - | - | - |
| 1777993236 | 23.33° C | 54% | 1040 hPa | - | - | - | - |
| 1777992336 | 23.89° C | 56% | 1041.9 hPa | - | - | - | - |
| 1777991435 | 23.33° C | 58% | 1040.4 hPa | - | - | - | - |
| 1777990534 | 23.89° C | 61% | 1042.8 hPa | - | - | - | - |
| 1777989634 | 24.44° C | 64% | 1044.2 hPa | - | - | - | - |
| 1777988733 | 22.22° C | 64% | 1035.9 hPa | - | - | - | - |
| 1777987833 | 26.11° C | 73% | 1052.4 hPa | - | - | - | - |
| 1777986932 | 22.78° C | 71% | 1038.2 hPa | - | - | - | - |
| 1777986031 | 24.44° C | 77% | 1046.5 hPa | - | - | - | - |
| 1777985131 | 24.44° C | 80% | 1045.4 hPa | - | - | - | - |
| 1777984230 | 22.78° C | 81% | 1040.2 hPa | - | - | - | - |
| 1777983329 | 24.44° C | 85% | 1046.1 hPa | - | - | - | - |
| 1777982429 | 23.89° C | 87% | 1043.9 hPa | - | - | - | - |
| 1777981528 | 20.56° C | 85% | 1032.6 hPa | - | - | - | - |
| 1777980628 | 22.78° C | 90% | 1041.2 hPa | - | - | - | - |
| 1777979728 | 18.33° C | 84% | 1022.1 hPa | - | - | - | - |
| 1777978827 | 23.33° C | 93% | 1042.6 hPa | - | - | - | - |
| 1777977926 | 21.67° C | 93% | 1036.4 hPa | - | - | - | - |
| 1777977026 | 18.89° C | 91% | 1024.9 hPa | - | - | - | - |
| 1777976125 | 22.22° C | 97% | 1039 hPa | - | - | - | - |
| 1777975225 | 22.22° C | 99% | 1039 hPa | - | - | - | - |
* Rain since midnight (hover to see other rain measurements)
** Current wind speed in m/s (hover to see current wind gust speed)